createdAt,value
2018-09-11T00:00:00.638Z,49.08
2018-09-11T00:00:31.747Z,49.12
2018-09-11T00:01:02.860Z,48.38
2018-09-11T00:01:34.028Z,48.37
2018-09-11T00:02:05.136Z,48.82
2018-09-11T00:02:36.253Z,48.96
2018-09-11T00:03:07.368Z,48.44
2018-09-11T00:03:38.551Z,48.26
2018-09-11T00:04:09.685Z,48.90
2018-09-11T00:04:40.784Z,48.87
2018-09-11T00:05:11.896Z,48.79
2018-09-11T00:05:43.057Z,48.62
2018-09-11T00:06:14.172Z,48.88
2018-09-11T00:06:45.292Z,48.25
2018-09-11T00:07:16.400Z,48.95
2018-09-11T00:07:47.526Z,48.85
2018-09-11T00:08:18.738Z,48.47
2018-09-11T00:08:49.866Z,48.99
2018-09-11T00:09:21.001Z,48.54
2018-09-11T00:09:52.099Z,48.76
2018-09-11T00:10:23.220Z,49.13
2018-09-11T00:10:54.346Z,49.47
2018-09-11T00:11:25.475Z,49.08
2018-09-11T00:11:56.681Z,49.23
2018-09-11T00:12:27.793Z,49.00
2018-09-11T00:12:58.893Z,49.03
2018-09-11T00:13:30.049Z,49.09
2018-09-11T00:14:01.173Z,50.03
2018-09-11T00:14:32.279Z,49.26
2018-09-11T00:15:03.471Z,49.01
2018-09-11T00:15:34.601Z,48.83
2018-09-11T00:16:05.717Z,48.99
2018-09-11T00:16:36.832Z,49.16
2018-09-11T00:17:07.989Z,48.64
2018-09-11T00:17:39.176Z,48.58
2018-09-11T00:18:10.376Z,48.64
2018-09-11T00:18:41.508Z,48.96
2018-09-11T00:19:12.734Z,48.98
2018-09-11T00:19:43.895Z,48.18
2018-09-11T00:20:15.015Z,48.42
2018-09-11T00:20:46.151Z,48.84
2018-09-11T00:21:17.268Z,48.97
2018-09-11T00:21:48.389Z,48.79
2018-09-11T00:22:19.578Z,48.03
2018-09-11T00:22:50.690Z,48.22
2018-09-11T00:23:21.795Z,48.66
2018-09-11T00:23:52.994Z,48.36
2018-09-11T00:24:24.142Z,48.56
2018-09-11T00:24:55.302Z,48.87
2018-09-11T00:25:26.401Z,48.66
2018-09-11T00:25:57.505Z,48.80
2018-09-11T00:26:28.637Z,49.17
2018-09-11T00:26:59.850Z,48.47
2018-09-11T00:27:30.977Z,48.79
2018-09-11T00:28:02.119Z,49.28
2018-09-11T00:28:33.234Z,48.47
2018-09-11T00:29:04.400Z,48.42
2018-09-11T00:29:35.521Z,48.41
2018-09-11T00:30:06.691Z,48.38
2018-09-11T00:30:37.830Z,48.46
2018-09-11T00:31:08.999Z,48.42
2018-09-11T00:31:40.173Z,48.45
2018-09-11T00:32:11.292Z,48.55
2018-09-11T00:32:42.494Z,49.14
2018-09-11T00:33:13.631Z,48.45
2018-09-11T00:33:44.738Z,48.60
2018-09-11T00:34:15.915Z,48.83
2018-09-11T00:34:47.036Z,48.17
2018-09-11T00:35:18.174Z,48.05
2018-09-11T00:35:49.301Z,48.14
2018-09-11T00:36:20.452Z,48.34
2018-09-11T00:36:51.590Z,48.15
2018-09-11T00:37:22.731Z,47.91
2018-09-11T00:37:53.924Z,48.03
2018-09-11T00:38:25.198Z,48.49
2018-09-11T00:38:56.328Z,48.58
2018-09-11T00:39:27.441Z,48.23
2018-09-11T00:39:58.547Z,48.11
2018-09-11T00:40:29.705Z,48.75
2018-09-11T00:41:00.841Z,48.40
2018-09-11T00:41:31.954Z,48.28
2018-09-11T00:42:03.136Z,48.38
2018-09-11T00:42:34.273Z,48.51
2018-09-11T00:43:05.417Z,48.55
2018-09-11T00:43:36.532Z,49.12
2018-09-11T00:44:07.665Z,48.54
2018-09-11T00:44:38.810Z,49.36
2018-09-11T00:45:09.922Z,48.85
2018-09-11T00:45:41.025Z,48.88
2018-09-11T00:46:12.211Z,48.85
2018-09-11T00:46:43.386Z,49.22
2018-09-11T00:47:14.525Z,48.96
2018-09-11T00:47:45.685Z,49.25
2018-09-11T00:48:16.864Z,49.45
2018-09-11T00:48:47.984Z,48.82
2018-09-11T00:49:19.086Z,49.48
2018-09-11T00:49:50.231Z,49.30
2018-09-11T00:50:21.344Z,48.73
2018-09-11T00:50:52.447Z,48.80
2018-09-11T00:51:23.628Z,49.14
2018-09-11T00:51:54.822Z,49.60
2018-09-11T00:52:26.017Z,49.25
2018-09-11T00:52:57.145Z,49.42
2018-09-11T00:53:28.273Z,48.75
2018-09-11T00:53:59.389Z,48.75
2018-09-11T00:54:30.581Z,48.73
2018-09-11T00:55:01.698Z,48.89
2018-09-11T00:55:32.810Z,49.28
2018-09-11T00:56:03.924Z,48.86
2018-09-11T00:56:35.047Z,49.32
2018-09-11T00:57:06.156Z,49.46
2018-09-11T00:57:37.265Z,48.99
2018-09-11T00:58:08.437Z,49.26
2018-09-11T00:58:39.608Z,48.93
2018-09-11T00:59:10.790Z,49.13
2018-09-11T00:59:41.899Z,48.95
2018-09-11T01:00:13.065Z,48.95
2018-09-11T01:00:44.172Z,49.00
2018-09-11T01:01:15.278Z,49.03
2018-09-11T01:01:46.421Z,49.10
2018-09-11T01:02:17.581Z,49.81
2018-09-11T01:02:48.757Z,49.80
2018-09-11T01:03:19.882Z,49.35
2018-09-11T01:03:51.016Z,49.50
2018-09-11T01:04:22.170Z,49.59
2018-09-11T01:04:53.297Z,49.96
2018-09-11T01:05:24.412Z,50.03
2018-09-11T01:05:55.624Z,49.82
2018-09-11T01:06:26.732Z,49.72
2018-09-11T01:06:57.868Z,49.62
2018-09-11T01:07:29.048Z,50.08
2018-09-11T01:08:00.190Z,50.02
2018-09-11T01:08:31.411Z,49.58
2018-09-11T01:09:02.576Z,49.82
2018-09-11T01:09:33.674Z,50.35
2018-09-11T01:10:04.816Z,49.59
2018-09-11T01:10:35.939Z,49.62
2018-09-11T01:11:07.127Z,49.92
2018-09-11T01:11:38.236Z,50.39
2018-09-11T01:12:09.404Z,50.05
2018-09-11T01:12:40.620Z,50.39
2018-09-11T01:13:11.764Z,49.73
2018-09-11T01:13:42.936Z,50.41
2018-09-11T01:14:14.055Z,49.83
2018-09-11T01:14:45.163Z,50.43
2018-09-11T01:15:16.305Z,50.17
2018-09-11T01:15:47.481Z,50.07
2018-09-11T01:16:18.587Z,50.17
2018-09-11T01:16:49.751Z,50.38
2018-09-11T01:17:20.866Z,50.25
2018-09-11T01:17:51.992Z,50.52
2018-09-11T01:18:23.099Z,50.58
2018-09-11T01:18:54.240Z,50.42
2018-09-11T01:19:25.343Z,50.76
2018-09-11T01:19:56.458Z,50.86
2018-09-11T01:20:27.558Z,50.20
2018-09-11T01:20:58.691Z,50.82
2018-09-11T01:21:29.801Z,50.49
2018-09-11T01:22:00.901Z,50.69
2018-09-11T01:22:32.100Z,50.69
2018-09-11T01:23:03.250Z,50.54
2018-09-11T01:23:34.422Z,50.63
2018-09-11T01:24:05.583Z,51.20
2018-09-11T01:24:36.712Z,51.31
2018-09-11T01:25:07.978Z,50.76
2018-09-11T01:25:39.117Z,51.39
2018-09-11T01:26:10.218Z,51.14
2018-09-11T01:26:41.356Z,51.51
2018-09-11T01:27:12.495Z,50.95
2018-09-11T01:27:43.653Z,51.28
2018-09-11T01:28:14.772Z,51.12
2018-09-11T01:28:45.901Z,51.17
2018-09-11T01:29:17.132Z,51.08
2018-09-11T01:29:48.261Z,51.27
2018-09-11T01:30:19.391Z,51.04
2018-09-11T01:30:50.527Z,51.05
2018-09-11T01:31:21.691Z,51.01
2018-09-11T01:31:52.795Z,50.90
2018-09-11T01:32:23.899Z,51.24
2018-09-11T01:32:55.068Z,50.91
2018-09-11T01:33:26.244Z,50.86
2018-09-11T01:33:57.357Z,51.01
2018-09-11T01:34:28.564Z,50.97
2018-09-11T01:34:59.702Z,51.00
2018-09-11T01:35:30.842Z,50.67
2018-09-11T01:36:01.974Z,51.44
2018-09-11T01:36:33.122Z,50.89
2018-09-11T01:37:04.283Z,50.53
2018-09-11T01:37:35.410Z,51.52
2018-09-11T01:38:06.580Z,50.67
2018-09-11T01:38:37.795Z,51.64
2018-09-11T01:39:08.960Z,51.49
2018-09-11T01:39:40.078Z,51.23
2018-09-11T01:40:11.215Z,51.61
2018-09-11T01:40:42.336Z,51.88
2018-09-11T01:41:13.463Z,50.90
2018-09-11T01:41:44.584Z,51.64
2018-09-11T01:42:15.704Z,51.00
2018-09-11T01:42:46.940Z,51.08
2018-09-11T01:43:18.128Z,51.21
2018-09-11T01:43:49.368Z,51.23
2018-09-11T01:44:20.520Z,51.34
2018-09-11T01:44:51.661Z,51.73
2018-09-11T01:45:22.827Z,51.47
2018-09-11T01:45:54.010Z,51.75
2018-09-11T01:46:25.241Z,51.76
2018-09-11T01:46:56.365Z,51.34
2018-09-11T01:47:27.500Z,51.70
2018-09-11T01:47:58.662Z,51.74
2018-09-11T01:48:29.856Z,52.01
2018-09-11T01:49:01.009Z,51.84
2018-09-11T01:49:32.174Z,51.49
2018-09-11T01:50:03.620Z,51.42
2018-09-11T01:50:34.784Z,51.64
2018-09-11T01:51:05.973Z,51.44
2018-09-11T01:51:37.097Z,51.60
2018-09-11T01:52:08.263Z,51.45
2018-09-11T01:52:39.389Z,51.56
2018-09-11T01:53:10.512Z,51.57
2018-09-11T01:53:41.685Z,51.52
2018-09-11T01:54:12.895Z,51.67
2018-09-11T01:54:44.031Z,52.42
2018-09-11T01:55:15.162Z,51.92
2018-09-11T01:55:46.284Z,52.16
2018-09-11T01:56:17.401Z,52.40
2018-09-11T01:56:48.535Z,52.52
2018-09-11T01:57:19.725Z,52.85
2018-09-11T01:57:50.926Z,52.67
2018-09-11T01:58:22.073Z,52.20
2018-09-11T01:58:53.205Z,52.18
2018-09-11T01:59:24.366Z,52.57
2018-09-11T01:59:55.520Z,53.04
2018-09-11T02:00:26.760Z,52.39
2018-09-11T02:00:57.966Z,53.03
2018-09-11T02:01:29.087Z,52.26
2018-09-11T02:02:00.269Z,52.92
2018-09-11T02:02:31.427Z,52.46
2018-09-11T02:03:02.597Z,53.05
2018-09-11T02:03:33.789Z,53.05
2018-09-11T02:04:04.910Z,53.31
2018-09-11T02:04:36.076Z,52.72
2018-09-11T02:05:07.204Z,53.33
2018-09-11T02:05:38.364Z,52.83
2018-09-11T02:06:09.483Z,52.83
2018-09-11T02:06:40.593Z,53.33
2018-09-11T02:07:11.708Z,53.01
2018-09-11T02:07:42.823Z,53.26
2018-09-11T02:08:14.044Z,53.33
2018-09-11T02:08:45.232Z,53.10
2018-09-11T02:09:16.419Z,53.11
2018-09-11T02:09:48.068Z,52.55
2018-09-11T02:10:19.197Z,52.92
2018-09-11T02:10:50.403Z,53.16
2018-09-11T02:11:21.583Z,53.48
2018-09-11T02:11:52.756Z,53.41
2018-09-11T02:12:23.866Z,53.24
2018-09-11T02:12:54.999Z,53.31
2018-09-11T02:13:26.197Z,53.34
2018-09-11T02:13:57.376Z,53.66
2018-09-11T02:14:28.518Z,53.65
2018-09-11T02:14:59.642Z,53.57
2018-09-11T02:15:30.807Z,54.13
2018-09-11T02:16:01.938Z,53.69
2018-09-11T02:16:33.124Z,53.75
2018-09-11T02:17:04.241Z,54.30
2018-09-11T02:17:35.416Z,53.68
2018-09-11T02:18:06.542Z,54.49
2018-09-11T02:18:37.690Z,53.88
2018-09-11T02:19:08.824Z,53.84
2018-09-11T02:19:39.954Z,54.12
2018-09-11T02:20:11.143Z,53.87
2018-09-11T02:20:42.305Z,54.31
2018-09-11T02:21:13.438Z,53.97
2018-09-11T02:21:44.582Z,54.56
2018-09-11T02:22:15.769Z,53.73
2018-09-11T02:22:46.948Z,54.02
2018-09-11T02:23:18.060Z,53.77
2018-09-11T02:23:49.233Z,54.19
2018-09-11T02:24:20.461Z,53.57
2018-09-11T02:24:51.572Z,53.64
2018-09-11T02:25:22.793Z,53.80
2018-09-11T02:25:53.967Z,53.56
2018-09-11T02:26:25.098Z,53.91
2018-09-11T02:26:56.477Z,53.69
2018-09-11T02:27:27.665Z,53.19
2018-09-11T02:27:58.783Z,53.27
2018-09-11T02:28:29.914Z,53.91
2018-09-11T02:29:01.046Z,53.30
2018-09-11T02:29:32.236Z,53.41
2018-09-11T02:30:03.375Z,53.87
2018-09-11T02:30:34.575Z,53.85
2018-09-11T02:31:05.816Z,53.90
2018-09-11T02:31:36.943Z,53.58
2018-09-11T02:32:08.175Z,53.57
2018-09-11T02:32:39.330Z,53.77
2018-09-11T02:33:10.527Z,53.43
2018-09-11T02:33:41.753Z,53.86
2018-09-11T02:34:12.947Z,53.94
2018-09-11T02:34:44.162Z,53.49
2018-09-11T02:35:15.299Z,53.40
2018-09-11T02:35:46.515Z,53.75
2018-09-11T02:36:17.629Z,53.23
2018-09-11T02:36:48.744Z,53.21
2018-09-11T02:37:19.860Z,53.42
2018-09-11T02:37:50.970Z,53.65
2018-09-11T02:38:22.155Z,53.48
2018-09-11T02:38:53.272Z,53.52
2018-09-11T02:39:24.417Z,53.51
2018-09-11T02:39:55.534Z,53.64
2018-09-11T02:40:26.782Z,53.53
2018-09-11T02:40:57.970Z,53.50
2018-09-11T02:41:29.152Z,53.39
2018-09-11T02:42:00.262Z,53.36
2018-09-11T02:42:31.375Z,53.79
2018-09-11T02:43:02.566Z,54.12
2018-09-11T02:43:33.743Z,53.80
2018-09-11T02:44:04.851Z,53.77
2018-09-11T02:44:35.997Z,53.54
2018-09-11T02:45:07.225Z,53.90
2018-09-11T02:45:38.377Z,53.76
2018-09-11T02:46:09.516Z,54.18
2018-09-11T02:46:40.715Z,54.03
2018-09-11T02:47:11.845Z,54.76
2018-09-11T02:47:42.962Z,54.66
2018-09-11T02:48:14.094Z,54.51
2018-09-11T02:48:45.283Z,54.29
2018-09-11T02:49:16.405Z,54.62
2018-09-11T02:49:47.515Z,54.80
2018-09-11T02:50:18.618Z,54.70
2018-09-11T02:50:49.865Z,55.00
2018-09-11T02:51:21.006Z,54.69
2018-09-11T02:51:52.239Z,54.50
2018-09-11T02:52:23.416Z,55.29
2018-09-11T02:52:54.532Z,55.47
2018-09-11T02:53:25.736Z,54.97
2018-09-11T02:53:56.880Z,54.79
2018-09-11T02:54:28.006Z,54.95
2018-09-11T02:54:59.124Z,55.25
2018-09-11T02:55:30.305Z,55.38
2018-09-11T02:56:01.485Z,54.79
2018-09-11T02:56:32.664Z,55.48
2018-09-11T02:57:03.775Z,55.44
2018-09-11T02:57:34.942Z,54.87
2018-09-11T02:58:06.061Z,54.76
2018-09-11T02:58:37.178Z,54.98
2018-09-11T02:59:08.316Z,54.69
2018-09-11T02:59:39.485Z,55.41
2018-09-11T03:00:10.684Z,55.54
2018-09-11T03:00:41.829Z,55.52
2018-09-11T03:01:12.958Z,55.61
2018-09-11T03:01:44.079Z,55.72
2018-09-11T03:02:15.244Z,55.31
2018-09-11T03:02:46.402Z,55.52
2018-09-11T03:03:17.525Z,55.72
2018-09-11T03:03:48.684Z,55.77
2018-09-11T03:04:19.800Z,55.72
2018-09-11T03:04:50.920Z,55.97
2018-09-11T03:05:22.015Z,55.77
2018-09-11T03:05:53.247Z,55.88
2018-09-11T03:06:24.571Z,55.80
2018-09-11T03:06:55.744Z,55.94
2018-09-11T03:07:26.874Z,55.65
2018-09-11T03:07:57.998Z,55.57
2018-09-11T03:08:29.163Z,56.04
2018-09-11T03:09:00.306Z,55.86
2018-09-11T03:09:31.477Z,55.40
2018-09-11T03:10:02.614Z,56.13
2018-09-11T03:10:33.806Z,55.60
2018-09-11T03:11:04.965Z,56.16
2018-09-11T03:11:36.144Z,55.63
2018-09-11T03:12:07.293Z,55.52
2018-09-11T03:12:38.419Z,56.09
2018-09-11T03:13:09.525Z,56.41
2018-09-11T03:13:40.638Z,56.10
2018-09-11T03:14:11.824Z,55.71
2018-09-11T03:14:43.009Z,56.31
2018-09-11T03:15:14.189Z,55.67
2018-09-11T03:15:45.335Z,56.25
2018-09-11T03:16:16.448Z,56.32
2018-09-11T03:16:47.582Z,56.11
2018-09-11T03:17:18.794Z,56.13
2018-09-11T03:17:49.930Z,56.28
2018-09-11T03:18:21.038Z,55.76
2018-09-11T03:18:52.210Z,56.34
2018-09-11T03:19:23.318Z,56.22
2018-09-11T03:19:54.449Z,56.28
2018-09-11T03:20:25.624Z,56.42
2018-09-11T03:20:56.786Z,56.27
2018-09-11T03:21:27.900Z,56.00
2018-09-11T03:21:59.007Z,56.27
2018-09-11T03:22:30.145Z,56.18
2018-09-11T03:23:01.290Z,56.22
2018-09-11T03:23:32.403Z,56.24
2018-09-11T03:24:03.530Z,56.18
2018-09-11T03:24:34.664Z,56.78
2018-09-11T03:25:05.796Z,56.53
2018-09-11T03:25:37.014Z,56.40
2018-09-11T03:26:08.147Z,56.65
2018-09-11T03:26:39.261Z,56.32
2018-09-11T03:27:10.424Z,56.69
2018-09-11T03:27:41.607Z,55.90
2018-09-11T03:28:12.772Z,56.79
2018-09-11T03:28:43.936Z,56.11
2018-09-11T03:29:15.110Z,56.51
2018-09-11T03:29:46.273Z,56.33
2018-09-11T03:30:17.398Z,56.35
2018-09-11T03:30:48.546Z,55.59
2018-09-11T03:31:19.660Z,55.61
2018-09-11T03:31:50.810Z,56.21
2018-09-11T03:32:21.986Z,55.86
2018-09-11T03:32:53.170Z,56.22
2018-09-11T03:33:24.341Z,55.39
2018-09-11T03:33:55.486Z,55.92
2018-09-11T03:34:26.647Z,56.29
2018-09-11T03:34:57.834Z,56.10
2018-09-11T03:35:29.092Z,55.80
2018-09-11T03:36:00.230Z,55.67
2018-09-11T03:36:31.362Z,55.86
2018-09-11T03:37:02.499Z,55.84
2018-09-11T03:37:33.642Z,56.37
2018-09-11T03:38:04.783Z,56.17
2018-09-11T03:38:36.079Z,55.67
2018-09-11T03:39:07.276Z,56.14
2018-09-11T03:39:38.454Z,55.87
2018-09-11T03:40:09.638Z,55.99
2018-09-11T03:40:40.788Z,56.26
2018-09-11T03:41:11.988Z,56.34
2018-09-11T03:41:43.098Z,56.57
2018-09-11T03:42:14.248Z,56.55
2018-09-11T03:42:45.443Z,56.25
2018-09-11T03:43:16.614Z,56.42
2018-09-11T03:43:47.839Z,56.34
2018-09-11T03:44:19.024Z,56.62
2018-09-11T03:44:50.173Z,56.47
2018-09-11T03:45:21.306Z,56.46
2018-09-11T03:45:52.430Z,57.01
2018-09-11T03:46:23.567Z,56.28
2018-09-11T03:46:54.737Z,56.76
2018-09-11T03:47:25.848Z,56.63
2018-09-11T03:47:56.998Z,56.38
2018-09-11T03:48:28.136Z,56.64
2018-09-11T03:48:59.292Z,56.69
2018-09-11T03:49:30.504Z,56.60
2018-09-11T03:50:01.625Z,56.45
2018-09-11T03:50:32.756Z,56.72
2018-09-11T03:51:03.880Z,56.61
2018-09-11T03:51:35.009Z,56.63
2018-09-11T03:52:06.136Z,56.48
2018-09-11T03:52:37.346Z,57.09
2018-09-11T03:53:08.451Z,56.51
2018-09-11T03:53:39.630Z,56.74
2018-09-11T03:54:10.763Z,56.63
2018-09-11T03:54:41.940Z,56.83
2018-09-11T03:55:13.050Z,56.71
2018-09-11T03:55:44.159Z,56.66
2018-09-11T03:56:15.303Z,56.72
2018-09-11T03:56:46.428Z,56.97
2018-09-11T03:57:17.533Z,57.34
2018-09-11T03:57:48.717Z,57.06
2018-09-11T03:58:19.887Z,56.91
2018-09-11T03:58:51.019Z,57.38
2018-09-11T03:59:22.275Z,56.91
2018-09-11T03:59:53.431Z,57.64
2018-09-11T04:00:24.576Z,57.02
2018-09-11T04:00:55.697Z,57.35
2018-09-11T04:01:26.922Z,56.56
2018-09-11T04:01:58.056Z,57.42
2018-09-11T04:02:29.180Z,57.26
2018-09-11T04:03:00.297Z,57.09
2018-09-11T04:03:31.430Z,56.40
2018-09-11T04:04:02.612Z,56.36
2018-09-11T04:04:34.619Z,56.83
2018-09-11T04:05:05.815Z,56.37
2018-09-11T04:05:37.088Z,56.83
2018-09-11T04:06:08.179Z,56.59
2018-09-11T04:06:39.371Z,57.20
2018-09-11T04:07:10.560Z,57.03
2018-09-11T04:07:41.727Z,56.46
2018-09-11T04:08:12.840Z,56.72
2018-09-11T04:08:43.943Z,56.52
2018-09-11T04:09:15.037Z,57.08
2018-09-11T04:09:46.238Z,56.66
2018-09-11T04:10:17.373Z,56.65
2018-09-11T04:10:48.539Z,57.25
2018-09-11T04:11:19.708Z,56.63
2018-09-11T04:11:50.837Z,56.28
2018-09-11T04:12:22.009Z,56.46
2018-09-11T04:12:53.164Z,56.50
2018-09-11T04:13:24.275Z,56.31
2018-09-11T04:13:55.376Z,57.04
2018-09-11T04:14:26.556Z,56.45
2018-09-11T04:14:57.665Z,56.53
2018-09-11T04:15:28.793Z,56.08
2018-09-11T04:16:00.066Z,56.55
2018-09-11T04:16:31.316Z,56.07
2018-09-11T04:17:02.491Z,55.65
2018-09-11T04:17:33.657Z,55.91
2018-09-11T04:18:04.792Z,55.28
2018-09-11T04:18:35.891Z,55.44
2018-09-11T04:19:07.004Z,55.21
2018-09-11T04:19:38.167Z,54.76
2018-09-11T04:20:09.341Z,55.39
2018-09-11T04:20:40.545Z,54.75
2018-09-11T04:21:11.732Z,54.74
2018-09-11T04:21:42.835Z,54.09
2018-09-11T04:22:13.986Z,54.49
2018-09-11T04:22:45.110Z,54.51
2018-09-11T04:23:16.227Z,53.53
2018-09-11T04:23:47.394Z,54.02
2018-09-11T04:24:18.523Z,53.51
2018-09-11T04:24:49.719Z,52.93
2018-09-11T04:25:20.854Z,52.21
2018-09-11T04:25:51.993Z,51.55
2018-09-11T04:26:23.152Z,51.30
2018-09-11T04:26:54.289Z,51.60
2018-09-11T04:27:25.465Z,50.92
2018-09-11T04:27:56.588Z,49.79
2018-09-11T04:28:27.718Z,50.02
2018-09-11T04:28:58.880Z,50.03
2018-09-11T04:29:30.165Z,49.80
2018-09-11T04:30:01.310Z,49.38
2018-09-11T04:30:32.426Z,48.79
2018-09-11T04:31:03.638Z,48.39
2018-09-11T04:31:34.804Z,48.37
2018-09-11T04:32:05.969Z,48.54
2018-09-11T04:32:37.110Z,48.69
2018-09-11T04:33:08.308Z,48.22
2018-09-11T04:33:39.485Z,47.30
2018-09-11T04:34:10.600Z,47.38
2018-09-11T04:34:41.783Z,47.94
2018-09-11T04:35:12.988Z,48.11
2018-09-11T04:35:44.195Z,48.42
2018-09-11T04:36:15.447Z,48.54
2018-09-11T04:36:46.600Z,49.40
2018-09-11T04:37:17.713Z,48.79
2018-09-11T04:37:48.825Z,49.40
2018-09-11T04:38:20.006Z,50.08
2018-09-11T04:38:51.192Z,49.33
2018-09-11T04:39:22.364Z,49.70
2018-09-11T04:39:53.482Z,49.29
2018-09-11T04:40:24.595Z,48.49
2018-09-11T04:40:55.699Z,48.36
2018-09-11T04:41:26.940Z,48.34
2018-09-11T04:41:58.063Z,47.24
2018-09-11T04:42:29.236Z,46.90
2018-09-11T04:43:00.464Z,46.87
2018-09-11T04:43:31.579Z,46.96
2018-09-11T04:44:02.756Z,46.85
2018-09-11T04:44:33.882Z,45.75
2018-09-11T04:45:04.998Z,45.53
2018-09-11T04:45:36.169Z,44.87
2018-09-11T04:46:07.284Z,44.58
2018-09-11T04:46:38.484Z,44.63
2018-09-11T04:47:09.614Z,44.39
2018-09-11T04:47:40.722Z,43.66
2018-09-11T04:48:11.856Z,43.45
2018-09-11T04:48:43.081Z,43.86
2018-09-11T04:49:14.260Z,43.74
2018-09-11T04:49:45.450Z,43.22
2018-09-11T04:50:16.608Z,42.93
2018-09-11T04:50:47.785Z,43.30
2018-09-11T04:51:18.906Z,43.13
2018-09-11T04:51:50.038Z,41.85
2018-09-11T04:52:21.208Z,41.60
2018-09-11T04:52:53.271Z,42.24
2018-09-11T04:53:24.449Z,41.75
2018-09-11T04:53:55.609Z,41.76
2018-09-11T04:54:26.706Z,41.47
2018-09-11T04:54:57.824Z,42.11
2018-09-11T04:55:28.992Z,40.98
2018-09-11T04:56:00.133Z,41.89
2018-09-11T04:56:31.302Z,41.63
2018-09-11T04:57:02.539Z,41.55
2018-09-11T04:57:33.696Z,42.29
2018-09-11T04:58:04.822Z,42.63
2018-09-11T04:58:35.923Z,41.80
2018-09-11T04:59:07.149Z,41.92
2018-09-11T04:59:38.253Z,42.77
2018-09-11T05:00:09.446Z,42.09
2018-09-11T05:00:40.599Z,42.46
2018-09-11T05:01:11.705Z,42.22
2018-09-11T05:01:42.801Z,42.05
2018-09-11T05:02:13.913Z,42.06
2018-09-11T05:02:45.071Z,40.98
2018-09-11T05:03:16.291Z,40.93
2018-09-11T05:03:47.409Z,41.32
2018-09-11T05:04:18.625Z,40.90
2018-09-11T05:04:49.748Z,41.84
2018-09-11T05:05:20.963Z,42.22
2018-09-11T05:05:52.128Z,42.37
2018-09-11T05:06:23.285Z,42.15
2018-09-11T05:06:54.403Z,42.49
2018-09-11T05:07:25.608Z,43.13
2018-09-11T05:07:56.843Z,42.70
2018-09-11T05:08:28.070Z,42.77
2018-09-11T05:08:59.305Z,42.30
2018-09-11T05:09:30.528Z,42.25
2018-09-11T05:10:01.691Z,42.95
2018-09-11T05:10:32.917Z,42.07
2018-09-11T05:11:04.084Z,41.74
2018-09-11T05:11:35.197Z,42.01
2018-09-11T05:12:06.424Z,41.18
2018-09-11T05:12:37.665Z,41.59
2018-09-11T05:13:08.849Z,41.61
2018-09-11T05:13:39.977Z,41.98
2018-09-11T05:14:11.150Z,41.46
2018-09-11T05:14:42.368Z,41.57
2018-09-11T05:15:13.481Z,41.81
2018-09-11T05:15:44.661Z,42.13
2018-09-11T05:16:15.794Z,42.13
2018-09-11T05:16:47.028Z,42.14
2018-09-11T05:17:18.193Z,41.74
2018-09-11T05:17:49.354Z,41.80
2018-09-11T05:18:20.600Z,43.18
2018-09-11T05:18:51.814Z,42.68
2018-09-11T05:19:22.915Z,43.46
2018-09-11T05:19:54.079Z,42.97
2018-09-11T05:20:25.250Z,43.09
2018-09-11T05:20:56.477Z,44.07
2018-09-11T05:21:27.664Z,43.76
2018-09-11T05:21:58.821Z,43.53
2018-09-11T05:22:30.005Z,43.87
2018-09-11T05:23:01.184Z,44.43
2018-09-11T05:23:32.406Z,44.22
2018-09-11T05:24:03.625Z,44.58
2018-09-11T05:24:34.737Z,44.27
2018-09-11T05:25:05.907Z,44.46
2018-09-11T05:25:37.029Z,44.63
2018-09-11T05:26:08.180Z,44.32
2018-09-11T05:26:39.374Z,44.95
2018-09-11T05:27:10.598Z,44.23
2018-09-11T05:27:41.725Z,44.69
2018-09-11T05:28:12.995Z,44.28
2018-09-11T05:28:44.185Z,44.32
2018-09-11T05:29:15.357Z,44.24
2018-09-11T05:29:46.584Z,43.93
2018-09-11T05:30:17.817Z,44.25
2018-09-11T05:30:49.793Z,43.99
2018-09-11T05:31:20.948Z,44.09
2018-09-11T05:31:52.134Z,43.92
2018-09-11T05:32:23.293Z,43.97
2018-09-11T05:32:54.480Z,43.68
2018-09-11T05:33:25.730Z,44.27
2018-09-11T05:33:56.867Z,44.11
2018-09-11T05:34:28.093Z,44.11
2018-09-11T05:34:59.271Z,44.53
2018-09-11T05:35:30.383Z,44.75
2018-09-11T05:36:01.549Z,44.14
2018-09-11T05:36:32.765Z,43.99
2018-09-11T05:37:03.879Z,44.21
2018-09-11T05:37:35.049Z,44.36
2018-09-11T05:38:06.275Z,44.10
2018-09-11T05:38:37.443Z,44.68
2018-09-11T05:39:08.756Z,43.76
2018-09-11T05:39:39.949Z,42.97
2018-09-11T05:40:11.185Z,44.16
2018-09-11T05:40:42.286Z,43.89
2018-09-11T05:41:13.467Z,43.64
2018-09-11T05:41:44.697Z,44.39
2018-09-11T05:42:15.829Z,44.34
2018-09-11T05:42:46.993Z,44.11
2018-09-11T05:43:18.161Z,44.42
2018-09-11T05:43:49.331Z,43.57
2018-09-11T05:44:20.431Z,42.89
2018-09-11T05:44:51.798Z,43.51
2018-09-11T05:45:23.035Z,42.98
2018-09-11T05:45:54.206Z,43.36
2018-09-11T05:46:25.322Z,43.25
2018-09-11T05:46:56.536Z,42.80
2018-09-11T05:47:27.781Z,43.39
2018-09-11T05:47:58.905Z,42.66
2018-09-11T05:48:30.071Z,42.89
2018-09-11T05:49:01.193Z,42.20
2018-09-11T05:49:32.382Z,42.85
2018-09-11T05:50:03.713Z,42.63
2018-09-11T05:50:34.828Z,42.67
2018-09-11T05:51:06.098Z,42.56
2018-09-11T05:51:37.393Z,42.39
2018-09-11T05:52:08.593Z,43.09
2018-09-11T05:52:39.769Z,42.49
2018-09-11T05:53:10.875Z,43.02
2018-09-11T05:53:41.988Z,42.49
2018-09-11T05:54:13.150Z,42.17
2018-09-11T05:54:44.320Z,41.99
2018-09-11T05:55:15.524Z,42.59
2018-09-11T05:55:46.624Z,42.73
2018-09-11T05:56:17.730Z,42.53
2018-09-11T05:57:19.847Z,42.12
2018-09-11T05:57:51.025Z,41.82
2018-09-11T05:58:22.261Z,41.86
2018-09-11T05:58:53.439Z,42.39
2018-09-11T05:59:24.628Z,42.24
2018-09-11T05:59:55.724Z,41.62
2018-09-11T06:00:26.924Z,42.30
2018-09-11T06:00:58.044Z,41.54
2018-09-11T06:01:29.225Z,42.22
2018-09-11T06:02:00.400Z,42.23
2018-09-11T06:02:31.517Z,41.92
2018-09-11T06:03:02.750Z,42.55
2018-09-11T06:03:33.961Z,42.53
2018-09-11T06:04:05.140Z,42.33
2018-09-11T06:04:36.360Z,42.64
2018-09-11T06:05:07.570Z,41.33
2018-09-11T06:05:39.901Z,42.37
2018-09-11T06:06:11.272Z,42.60
2018-09-11T06:06:42.541Z,43.12
2018-09-11T06:07:13.832Z,41.97
2018-09-11T06:07:45.023Z,42.44
2018-09-11T06:08:16.899Z,42.36
2018-09-11T06:08:48.093Z,42.42
2018-09-11T06:09:19.416Z,42.24
2018-09-11T06:09:50.591Z,42.51
2018-09-11T06:10:21.783Z,42.72
2018-09-11T06:10:53.122Z,41.61
2018-09-11T06:11:24.663Z,42.30
2018-09-11T06:11:55.789Z,42.12
2018-09-11T06:12:26.951Z,42.74
2018-09-11T06:12:58.154Z,43.13
2018-09-11T06:13:29.291Z,42.20
2018-09-11T06:14:00.600Z,42.33
2018-09-11T06:14:31.858Z,41.71
2018-09-11T06:15:03.178Z,42.20
2018-09-11T06:15:34.662Z,42.11
2018-09-11T06:16:05.930Z,42.28
2018-09-11T06:16:37.246Z,41.78
2018-09-11T06:17:08.733Z,41.75
2018-09-11T06:17:40.247Z,42.13
2018-09-11T06:18:11.736Z,41.19
2018-09-11T06:18:43.186Z,41.63
2018-09-11T06:19:14.353Z,41.36
2018-09-11T06:19:45.823Z,41.71
2018-09-11T06:20:17.227Z,41.65
2018-09-11T06:20:48.635Z,41.97
2018-09-11T06:21:20.047Z,41.91
2018-09-11T06:21:51.471Z,41.83
2018-09-11T06:22:22.976Z,41.20
2018-09-11T06:22:54.131Z,41.17
2018-09-11T06:23:25.635Z,41.13
2018-09-11T06:23:57.203Z,40.92
2018-09-11T06:24:28.753Z,40.96
2018-09-11T06:24:59.987Z,41.71
2018-09-11T06:25:31.228Z,41.21
2018-09-11T06:26:02.357Z,40.66
2018-09-11T06:26:33.532Z,40.43
2018-09-11T06:27:04.732Z,40.95
2018-09-11T06:27:35.828Z,40.53
2018-09-11T06:28:07.004Z,41.16
2018-09-11T06:28:38.429Z,40.27
2018-09-11T06:29:09.672Z,40.45
2018-09-11T06:29:41.121Z,40.42
2018-09-11T06:30:12.312Z,41.19
2018-09-11T06:30:43.791Z,41.02
2018-09-11T06:31:14.942Z,40.38
2018-09-11T06:31:46.439Z,41.34
2018-09-11T06:32:18.000Z,40.65
2018-09-11T06:32:49.592Z,41.54
2018-09-11T06:33:20.829Z,40.56
2018-09-11T06:33:52.262Z,41.38
2018-09-11T06:34:23.459Z,40.96
2018-09-11T06:34:54.892Z,40.55
2018-09-11T06:35:26.419Z,40.30
2018-09-11T06:35:57.693Z,41.16
2018-09-11T06:36:29.189Z,41.52
2018-09-11T06:37:00.358Z,41.00
2018-09-11T06:37:31.557Z,40.30
2018-09-11T06:38:02.743Z,40.49
2018-09-11T06:38:33.928Z,40.37
2018-09-11T06:39:05.110Z,40.91
2018-09-11T06:39:36.613Z,40.96
2018-09-11T06:40:07.796Z,40.66
2018-09-11T06:40:38.973Z,40.47
2018-09-11T06:41:10.473Z,40.04
2018-09-11T06:41:41.655Z,39.55